Time;durP1;ratioP1;P1;durP2;ratioP2;P2;SDS_P1;SDS_P2;PMS_P1;PMS_P2;Temp;Humidity;BMP_temperature;BMP_pressure;BME280_temperature;BME280_humidity;BME280_pressure;Samples;Min_cycle;Max_cycle;Signal;HPM_P1;HPM_P2
2023/08/02 00:00:47;;;;;;;3.90;2.58;;;;;;;;;;5088291;28;20012;-47
2023/08/02 00:03:13;;;;;;;5.28;2.45;;;;;;;;;;5089041;28;20110;-52
2023/08/02 00:05:38;;;;;;;4.60;3.10;;;;;;;;;;5108239;28;20038;-48
2023/08/02 00:08:04;;;;;;;5.25;2.83;;;;;;;;;;5096817;28;20035;-49
2023/08/02 00:10:29;;;;;;;5.60;3.17;;;;;;;;;;5087881;28;20081;-47
2023/08/02 00:12:54;;;;;;;6.40;3.33;;;;;;;;;;5108332;27;20032;-49
2023/08/02 00:15:19;;;;;;;7.70;3.55;;;;;;;;;;5087539;28;20131;-46
2023/08/02 00:17:45;;;;;;;5.82;3.80;;;;;;;;;;5096420;28;20019;-50
2023/08/02 00:20:10;;;;;;;5.70;3.25;;;;;;;;;;5107852;28;20059;-47
2023/08/02 00:22:35;;;;;;;6.28;3.38;;;;;;;;;;5101099;28;20102;-51
2023/08/02 00:25:01;;;;;;;6.30;3.30;;;;;;;;;;5087626;28;20080;-50
2023/08/02 00:27:26;;;;;;;4.20;2.67;;;;;;;;;;5087911;28;20027;-49
2023/08/02 00:29:51;;;;;;;4.80;2.83;;;;;;;;;;5095868;28;20118;-49
2023/08/02 00:32:18;;;;;;;5.82;3.15;;;;;;;;;;5091020;28;20035;-52
2023/08/02 00:34:43;;;;;;;4.40;2.97;;;;;;;;;;5108361;28;20529;-52
2023/08/02 00:37:08;;;;;;;3.97;2.87;;;;;;;;;;5105660;27;20023;-50
2023/08/02 00:39:33;;;;;;;4.15;3.00;;;;;;;;;;5098388;28;20629;-48
2023/08/02 00:41:59;;;;;;;7.00;3.57;;;;;;;;;;5107071;28;20126;-49
2023/08/02 00:44:24;;;;;;;5.40;3.63;;;;;;;;;;5097597;28;20733;-49
2023/08/02 00:46:49;;;;;;;5.28;2.95;;;;;;;;;;5087644;28;20146;-50
2023/08/02 00:49:14;;;;;;;7.28;3.90;;;;;;;;;;5092574;28;20477;-51
2023/08/02 00:51:40;;;;;;;5.65;3.75;;;;;;;;;;5087685;28;20182;-48
2023/08/02 00:54:06;;;;;;;5.93;2.95;;;;;;;;;;5099321;28;20110;-48
2023/08/02 00:56:31;;;;;;;7.00;2.75;;;;;;;;;;5086112;28;20484;-51
2023/08/02 00:58:57;;;;;;;7.80;3.25;;;;;;;;;;5086897;28;20026;-52
2023/08/02 01:01:22;;;;;;;9.43;3.42;;;;;;;;;;5087529;28;20035;-47
2023/08/02 01:03:48;;;;;;;9.05;3.75;;;;;;;;;;5087195;28;20133;-47
2023/08/02 01:06:33;;;;;;;5.47;3.40;;;;;;;;;;5086768;28;20477;-45
2023/08/02 01:09:03;;;;;;;6.78;3.78;;;;;;;;;;5086036;28;20031;-47
2023/08/02 01:11:54;;;;;;;5.63;3.42;;;;;;;;;;5067727;28;20055;-47
2023/08/02 01:14:20;;;;;;;7.18;3.95;;;;;;;;;;5103135;28;20373;-52
2023/08/02 01:16:47;;;;;;;6.22;3.38;;;;;;;;;;5086557;28;20047;-51
2023/08/02 01:19:12;;;;;;;7.70;3.55;;;;;;;;;;5103389;28;20028;-46
2023/08/02 01:21:38;;;;;;;6.43;4.00;;;;;;;;;;5104688;28;20035;-48
2023/08/02 01:24:03;;;;;;;7.35;3.42;;;;;;;;;;5098867;28;20722;-46
2023/08/02 01:26:30;;;;;;;6.35;3.38;;;;;;;;;;5100990;28;20428;-49
2023/08/02 01:28:57;;;;;;;6.78;3.60;;;;;;;;;;5103183;28;20297;-47
2023/08/02 01:31:23;;;;;;;6.13;3.67;;;;;;;;;;5102859;28;20058;-49
2023/08/02 01:33:53;;;;;;;6.32;3.88;;;;;;;;;;5101564;28;20097;-47
2023/08/02 01:36:19;;;;;;;4.78;2.97;;;;;;;;;;5104127;28;20047;-49
2023/08/02 01:38:44;;;;;;;5.55;3.20;;;;;;;;;;5101840;28;20104;-53
2023/08/02 01:41:09;;;;;;;4.90;3.55;;;;;;;;;;5103870;28;20027;-48
2023/08/02 01:43:34;;;;;;;6.18;3.63;;;;;;;;;;5102533;28;20377;-47
2023/08/02 01:46:00;;;;;;;6.20;3.78;;;;;;;;;;5103960;28;20031;-50
2023/08/02 01:48:26;;;;;;;7.55;3.85;;;;;;;;;;5101545;28;20110;-47
2023/08/02 01:50:51;;;;;;;5.97;3.55;;;;;;;;;;5079560;28;20139;-46
2023/08/02 01:53:17;;;;;;;5.53;3.42;;;;;;;;;;5085964;28;20020;-48
2023/08/02 01:55:42;;;;;;;8.13;3.63;;;;;;;;;;5086171;28;20108;-51
2023/08/02 01:58:07;;;;;;;8.20;3.55;;;;;;;;;;5085909;28;20256;-50
2023/08/02 02:00:33;;;;;;;6.63;3.53;;;;;;;;;;5105362;28;20092;-52
2023/08/02 02:02:58;;;;;;;7.93;3.90;;;;;;;;;;5104293;28;20267;-50
2023/08/02 02:05:23;;;;;;;7.28;3.65;;;;;;;;;;5083363;28;20186;-48
2023/08/02 02:07:49;;;;;;;6.28;3.67;;;;;;;;;;5096223;28;20020;-53
2023/08/02 02:10:14;;;;;;;7.10;3.22;;;;;;;;;;5106160;28;20026;-48
2023/08/02 02:12:39;;;;;;;4.85;3.38;;;;;;;;;;5098058;28;20012;-50
2023/08/02 02:15:05;;;;;;;6.82;3.33;;;;;;;;;;5085927;28;20366;-50
2023/08/02 02:17:30;;;;;;;7.88;3.95;;;;;;;;;;5086023;28;20487;-50
2023/08/02 02:19:55;;;;;;;7.30;3.38;;;;;;;;;;5099742;28;20024;-46
2023/08/02 02:22:21;;;;;;;7.90;3.65;;;;;;;;;;5100326;28;20340;-47
2023/08/02 02:24:46;;;;;;;6.80;3.83;;;;;;;;;;5086022;28;20487;-49
2023/08/02 02:27:11;;;;;;;5.80;3.53;;;;;;;;;;5088361;28;20024;-46
2023/08/02 02:29:36;;;;;;;8.57;3.65;;;;;;;;;;5097621;28;20020;-47
2023/08/02 02:32:02;;;;;;;8.53;4.07;;;;;;;;;;5103107;28;20669;-53
2023/08/02 02:34:27;;;;;;;8.52;3.78;;;;;;;;;;5091742;28;20268;-49
2023/08/02 02:36:52;;;;;;;7.70;3.90;;;;;;;;;;5086863;28;20020;-47
2023/08/02 02:39:18;;;;;;;3.67;2.70;;;;;;;;;;5085820;28;20257;-53
2023/08/02 02:41:43;;;;;;;6.83;4.20;;;;;;;;;;5085615;28;20595;-50
2023/08/02 02:44:09;;;;;;;5.65;3.58;;;;;;;;;;5089669;28;20427;-52
2023/08/02 02:46:34;;;;;;;8.70;3.60;;;;;;;;;;5100326;28;20030;-49
2023/08/02 02:48:59;;;;;;;6.75;3.80;;;;;;;;;;5107087;28;20040;-50
2023/08/02 02:51:25;;;;;;;11.07;4.20;;;;;;;;;;5090487;28;20052;-52
2023/08/02 02:53:50;;;;;;;5.63;3.70;;;;;;;;;;5089501;28;20491;-50
2023/08/02 02:56:15;;;;;;;6.10;3.83;;;;;;;;;;5089645;28;20253;-52
2023/08/02 02:58:40;;;;;;;10.33;4.00;;;;;;;;;;5092427;28;20024;-51
2023/08/02 03:01:06;;;;;;;6.15;3.55;;;;;;;;;;5110067;28;20232;-50
2023/08/02 03:03:31;;;;;;;6.18;3.35;;;;;;;;;;5094016;28;20074;-49
2023/08/02 03:05:56;;;;;;;7.35;3.65;;;;;;;;;;5104630;27;20036;-48
2023/08/02 03:08:21;;;;;;;7.20;3.85;;;;;;;;;;5106009;28;20469;-48
2023/08/02 03:10:47;;;;;;;8.88;3.95;;;;;;;;;;5093610;28;20059;-50
2023/08/02 03:13:12;;;;;;;6.13;3.83;;;;;;;;;;5090064;28;20112;-53
2023/08/02 03:15:37;;;;;;;6.32;3.67;;;;;;;;;;5094517;28;20295;-47
2023/08/02 03:18:03;;;;;;;6.32;4.03;;;;;;;;;;5093483;28;20071;-46
2023/08/02 03:20:28;;;;;;;7.53;3.60;;;;;;;;;;5089212;28;20118;-51
2023/08/02 03:22:53;;;;;;;5.90;3.75;;;;;;;;;;5095917;28;20484;-49
2023/08/02 03:25:18;;;;;;;5.68;3.63;;;;;;;;;;5095943;28;20251;-51
2023/08/02 03:27:44;;;;;;;11.70;4.00;;;;;;;;;;5092234;28;20416;-50
2023/08/02 03:30:09;;;;;;;14.23;4.30;;;;;;;;;;5106396;28;20038;-52
2023/08/02 03:32:34;;;;;;;4.47;3.72;;;;;;;;;;5104496;28;20280;-47
2023/08/02 03:35:00;;;;;;;7.03;4.00;;;;;;;;;;5107419;28;20119;-51
2023/08/02 03:37:25;;;;;;;12.60;4.10;;;;;;;;;;5104557;28;20077;-52
2023/08/02 03:39:50;;;;;;;7.35;4.05;;;;;;;;;;5089045;28;20469;-53
2023/08/02 03:42:15;;;;;;;6.50;3.28;;;;;;;;;;5094644;28;20077;-49
2023/08/02 03:44:41;;;;;;;9.50;3.78;;;;;;;;;;5107196;28;20473;-51
2023/08/02 03:47:06;;;;;;;9.63;3.72;;;;;;;;;;5105020;27;20084;-53
2023/08/02 03:49:31;;;;;;;8.70;4.28;;;;;;;;;;5102920;28;20514;-51
2023/08/02 03:51:56;;;;;;;8.52;4.72;;;;;;;;;;5105431;28;20123;-50
2023/08/02 03:54:22;;;;;;;8.82;4.43;;;;;;;;;;5098205;28;20050;-52
2023/08/02 03:56:47;;;;;;;9.65;4.53;;;;;;;;;;5087929;28;20106;-52
2023/08/02 03:59:12;;;;;;;6.97;4.65;;;;;;;;;;5102907;28;20028;-51
2023/08/02 04:01:37;;;;;;;10.05;4.50;;;;;;;;;;5108487;27;20070;-49
2023/08/02 04:04:03;;;;;;;7.47;4.47;;;;;;;;;;5100199;28;20028;-51
2023/08/02 04:06:28;;;;;;;8.35;5.07;;;;;;;;;;5087916;28;20028;-48
2023/08/02 04:08:53;;;;;;;11.52;4.85;;;;;;;;;;5099070;28;20468;-53
2023/08/02 04:11:19;;;;;;;8.00;4.70;;;;;;;;;;5088111;28;20069;-53
2023/08/02 04:13:44;;;;;;;10.68;4.60;;;;;;;;;;5087816;28;20279;-48
2023/08/02 04:16:09;;;;;;;5.93;4.05;;;;;;;;;;5085452;28;20060;-52
2023/08/02 04:18:35;;;;;;;8.23;4.50;;;;;;;;;;5089891;28;20062;-52
2023/08/02 04:21:00;;;;;;;5.95;3.85;;;;;;;;;;5108558;28;20030;-52
2023/08/02 04:23:26;;;;;;;7.60;3.33;;;;;;;;;;5094459;28;20032;-54
2023/08/02 04:25:51;;;;;;;5.68;3.50;;;;;;;;;;5088175;28;20480;-51
2023/08/02 04:28:17;;;;;;;7.55;3.20;;;;;;;;;;5099451;28;20058;-53
2023/08/02 04:30:42;;;;;;;6.10;3.00;;;;;;;;;;5091910;28;20028;-53
2023/08/02 04:33:07;;;;;;;5.60;3.40;;;;;;;;;;5088057;28;20256;-51
2023/08/02 04:35:32;;;;;;;4.50;3.07;;;;;;;;;;5087976;28;20028;-51
2023/08/02 04:37:58;;;;;;;5.07;3.00;;;;;;;;;;5089144;28;20313;-51
2023/08/02 04:40:23;;;;;;;4.43;3.03;;;;;;;;;;5087635;28;20279;-52
2023/08/02 04:42:50;;;;;;;4.45;2.80;;;;;;;;;;5087876;28;20257;-52
2023/08/02 04:45:15;;;;;;;13.93;3.40;;;;;;;;;;5088047;28;20455;-51
2023/08/02 04:47:40;;;;;;;10.25;3.22;;;;;;;;;;5104699;27;20078;-49
2023/08/02 04:50:06;;;;;;;7.25;2.85;;;;;;;;;;5087378;28;20522;-53
2023/08/02 04:52:34;;;;;;;9.68;3.58;;;;;;;;;;5088650;28;20024;-46
2023/08/02 04:55:00;;;;;;;7.33;2.77;;;;;;;;;;5103791;28;20035;-47
2023/08/02 04:57:25;;;;;;;7.88;3.30;;;;;;;;;;5101334;28;20046;-53
2023/08/02 04:59:53;;;;;;;4.85;2.75;;;;;;;;;;5100042;28;20027;-50
2023/08/02 05:02:20;;;;;;;4.40;2.80;;;;;;;;;;5099064;28;20468;-52
2023/08/02 05:04:51;;;;;;;3.85;2.83;;;;;;;;;;5106327;28;20122;-52
2023/08/02 05:07:16;;;;;;;4.43;2.83;;;;;;;;;;5104087;28;20036;-51
2023/08/02 05:09:41;;;;;;;4.65;2.33;;;;;;;;;;5087530;28;20092;-52
2023/08/02 05:12:07;;;;;;;5.78;2.50;;;;;;;;;;5086751;28;20085;-52
2023/08/02 05:14:32;;;;;;;14.88;3.38;;;;;;;;;;5086227;28;20087;-49
2023/08/02 05:16:57;;;;;;;6.40;2.37;;;;;;;;;;5086547;28;20026;-49
2023/08/02 05:19:23;;;;;;;7.73;2.80;;;;;;;;;;5095541;28;20268;-48
2023/08/02 05:21:49;;;;;;;3.57;2.60;;;;;;;;;;5106245;28;20739;-49
2023/08/02 05:24:14;;;;;;;6.25;2.67;;;;;;;;;;5086519;28;20318;-53
2023/08/02 05:26:40;;;;;;;8.20;2.90;;;;;;;;;;5095173;28;20473;-50
2023/08/02 05:29:05;;;;;;;4.30;2.77;;;;;;;;;;5105495;28;20321;-49
2023/08/02 05:31:30;;;;;;;5.55;2.88;;;;;;;;;;5104909;28;20344;-49
2023/08/02 05:33:55;;;;;;;4.00;2.47;;;;;;;;;;5096797;28;20110;-48
2023/08/02 05:36:21;;;;;;;5.67;2.17;;;;;;;;;;5104613;27;21121;-53
2023/08/02 05:38:46;;;;;;;4.40;2.30;;;;;;;;;;5102076;28;20287;-48
2023/08/02 05:41:11;;;;;;;3.83;2.07;;;;;;;;;;5119014;27;20268;-49
2023/08/02 05:43:41;;;;;;;6.60;2.67;;;;;;;;;;5098182;28;20332;-48
2023/08/02 05:46:07;;;;;;;4.80;2.15;;;;;;;;;;5099817;28;20024;-52
2023/08/02 05:48:32;;;;;;;4.88;2.47;;;;;;;;;;5087282;28;20076;-51
2023/08/02 05:50:57;;;;;;;3.30;2.10;;;;;;;;;;5089769;28;20032;-49
2023/08/02 05:53:22;;;;;;;6.80;1.90;;;;;;;;;;5092437;28;20716;-47
2023/08/02 05:55:48;;;;;;;5.97;2.40;;;;;;;;;;5104083;28;20267;-50
2023/08/02 05:58:13;;;;;;;6.57;2.63;;;;;;;;;;5103745;28;20264;-49
2023/08/02 06:00:38;;;;;;;3.90;2.20;;;;;;;;;;5094213;28;20083;-50
2023/08/02 06:03:03;;;;;;;5.00;2.53;;;;;;;;;;5105548;27;20260;-52
2023/08/02 06:05:29;;;;;;;6.23;3.10;;;;;;;;;;5086959;27;20308;-53
2023/08/02 06:07:54;;;;;;;4.17;2.60;;;;;;;;;;5099288;27;20267;-55
2023/08/02 06:10:19;;;;;;;5.22;2.20;;;;;;;;;;5090484;28;20755;-52
2023/08/02 06:12:44;;;;;;;3.87;2.20;;;;;;;;;;5090998;28;20674;-53
2023/08/02 06:15:10;;;;;;;4.50;2.42;;;;;;;;;;5105166;28;20039;-54
2023/08/02 06:17:35;;;;;;;6.63;2.40;;;;;;;;;;5102695;28;20055;-54
2023/08/02 06:20:00;;;;;;;5.47;2.30;;;;;;;;;;5095675;28;20032;-53
2023/08/02 06:22:26;;;;;;;7.30;2.20;;;;;;;;;;5086931;28;20293;-52
2023/08/02 06:24:51;;;;;;;3.50;2.17;;;;;;;;;;5101546;28;20395;-53
2023/08/02 06:27:16;;;;;;;8.77;2.07;;;;;;;;;;5104430;28;20066;-48
2023/08/02 06:29:42;;;;;;;3.50;2.30;;;;;;;;;;5090537;28;20264;-53
2023/08/02 06:32:07;;;;;;;4.23;2.20;;;;;;;;;;5089777;28;20051;-50
2023/08/02 06:34:33;;;;;;;4.40;2.05;;;;;;;;;;5113691;27;20252;-53
2023/08/02 06:36:58;;;;;;;8.57;2.42;;;;;;;;;;5098295;28;20548;-52
2023/08/02 06:39:24;;;;;;;8.47;2.43;;;;;;;;;;5098486;28;20115;-54
2023/08/02 06:41:49;;;;;;;4.97;2.67;;;;;;;;;;5094068;28;20316;-56
2023/08/02 06:44:14;;;;;;;3.13;2.00;;;;;;;;;;5086474;28;20036;-55
2023/08/02 06:46:40;;;;;;;3.40;2.47;;;;;;;;;;5088190;28;20812;-57
2023/08/02 06:49:05;;;;;;;3.92;2.05;;;;;;;;;;5094104;28;20610;-54
2023/08/02 06:51:30;;;;;;;3.78;1.90;;;;;;;;;;5093964;28;20111;-54
2023/08/02 06:53:57;;;;;;;7.30;2.37;;;;;;;;;;5092638;28;20404;-55
2023/08/02 06:56:23;;;;;;;4.40;2.17;;;;;;;;;;5094488;28;20019;-58
2023/08/02 06:58:48;;;;;;;3.38;2.10;;;;;;;;;;5097340;28;20487;-55
2023/08/02 07:01:14;;;;;;;2.93;1.80;;;;;;;;;;5106648;28;20028;-57
2023/08/02 07:03:39;;;;;;;5.13;2.15;;;;;;;;;;5089946;28;20027;-59
2023/08/02 07:06:08;;;;;;;3.93;2.03;;;;;;;;;;5102217;28;20030;-57
2023/08/02 07:08:34;;;;;;;3.67;1.60;;;;;;;;;;5094691;28;20645;-58
2023/08/02 07:10:59;;;;;;;5.53;1.80;;;;;;;;;;5103040;28;20027;-57
2023/08/02 07:13:24;;;;;;;2.23;1.90;;;;;;;;;;5088915;28;20024;-59
2023/08/02 07:15:49;;;;;;;2.77;1.77;;;;;;;;;;5098992;28;20048;-59
2023/08/02 07:18:15;;;;;;;3.23;2.17;;;;;;;;;;5089259;27;20070;-56
2023/08/02 07:20:40;;;;;;;2.07;1.80;;;;;;;;;;5103052;28;20020;-56
2023/08/02 07:23:05;;;;;;;2.60;2.13;;;;;;;;;;5089829;28;20469;-59
2023/08/02 07:25:31;;;;;;;2.25;1.80;;;;;;;;;;5102222;28;20039;-58
2023/08/02 07:27:56;;;;;;;2.40;1.90;;;;;;;;;;5094280;28;20384;-55
2023/08/02 07:30:21;;;;;;;3.07;1.83;;;;;;;;;;5093295;28;20028;-59
2023/08/02 07:32:46;;;;;;;3.72;1.60;;;;;;;;;;5103732;28;20062;-55
2023/08/02 07:35:12;;;;;;;4.50;2.07;;;;;;;;;;5102888;28;20411;-59
2023/08/02 07:37:37;;;;;;;2.45;1.92;;;;;;;;;;5094089;28;20288;-58
2023/08/02 07:40:03;;;;;;;3.63;1.30;;;;;;;;;;5094289;28;20594;-59
2023/08/02 07:42:28;;;;;;;2.42;1.60;;;;;;;;;;5097306;28;20259;-57
2023/08/02 07:45:00;;;;;;;2.55;1.42;;;;;;;;;;5094054;28;20023;-58
2023/08/02 07:47:25;;;;;;;3.25;1.92;;;;;;;;;;5091932;27;20044;-59
2023/08/02 07:49:50;;;;;;;3.53;1.50;;;;;;;;;;5090693;28;20043;-51
2023/08/02 07:52:16;;;;;;;2.23;1.73;;;;;;;;;;5097436;28;20019;-57
2023/08/02 07:54:41;;;;;;;2.97;1.53;;;;;;;;;;5089792;28;20267;-59
2023/08/02 07:57:06;;;;;;;2.57;1.60;;;;;;;;;;5093826;27;20376;-56
2023/08/02 07:59:31;;;;;;;2.00;1.60;;;;;;;;;;5096641;28;20110;-58
2023/08/02 08:01:57;;;;;;;5.27;1.80;;;;;;;;;;5099609;28;20264;-60
2023/08/02 08:04:22;;;;;;;3.67;2.00;;;;;;;;;;5097573;27;20027;-59
2023/08/02 08:06:48;;;;;;;1.57;1.40;;;;;;;;;;5128417;27;20098;-59
2023/08/02 08:09:13;;;;;;;5.45;1.73;;;;;;;;;;5103079;27;20275;-56
2023/08/02 08:11:39;;;;;;;3.30;1.50;;;;;;;;;;5099380;27;20020;-57
2023/08/02 08:14:04;;;;;;;2.00;1.53;;;;;;;;;;5098047;28;20256;-60
2023/08/02 08:16:29;;;;;;;2.67;1.50;;;;;;;;;;5106479;28;20368;-57
2023/08/02 08:18:54;;;;;;;1.63;1.40;;;;;;;;;;5091675;28;20031;-59
2023/08/02 08:21:20;;;;;;;2.13;1.20;;;;;;;;;;5097759;28;20266;-61
2023/08/02 08:23:45;;;;;;;4.67;1.87;;;;;;;;;;5098118;28;20270;-57
2023/08/02 08:26:12;;;;;;;4.10;1.40;;;;;;;;;;5094900;28;20023;-60
2023/08/02 08:28:37;;;;;;;3.55;1.73;;;;;;;;;;5097748;28;20386;-58
2023/08/02 08:31:03;;;;;;;2.20;1.37;;;;;;;;;;5091931;28;20077;-58
2023/08/02 08:33:29;;;;;;;4.30;1.58;;;;;;;;;;5091602;27;20024;-57
2023/08/02 08:35:54;;;;;;;2.90;1.58;;;;;;;;;;5096765;28;20060;-60
2023/08/02 08:38:19;;;;;;;2.07;1.07;;;;;;;;;;5098463;28;20073;-61
2023/08/02 08:40:51;;;;;;;1.90;1.17;;;;;;;;;;5107315;28;20047;-61
2023/08/02 08:43:16;;;;;;;5.55;1.48;;;;;;;;;;5103008;28;20020;-59
2023/08/02 08:45:43;;;;;;;4.00;1.45;;;;;;;;;;5091744;28;20610;-59
2023/08/02 08:48:09;;;;;;;2.58;1.23;;;;;;;;;;5096131;28;20081;-60
2023/08/02 08:50:34;;;;;;;2.08;0.88;;;;;;;;;;5106419;27;20028;-60
2023/08/02 08:53:03;;;;;;;3.47;1.25;;;;;;;;;;5097529;27;20047;-58
2023/08/02 08:55:29;;;;;;;2.55;1.20;;;;;;;;;;5099303;27;20052;-58
2023/08/02 08:57:54;;;;;;;1.35;1.05;;;;;;;;;;5093784;27;20116;-58
2023/08/02 09:00:19;;;;;;;1.17;1.07;;;;;;;;;;5093170;28;20024;-58
2023/08/02 09:02:45;;;;;;;1.90;1.23;;;;;;;;;;5100882;28;20015;-59
2023/08/02 09:05:11;;;;;;;3.78;1.02;;;;;;;;;;5091068;28;20031;-57
2023/08/02 09:07:37;;;;;;;1.85;1.27;;;;;;;;;;5088887;28;20024;-59
2023/08/02 09:10:02;;;;;;;1.20;1.00;;;;;;;;;;5097514;28;20066;-57
2023/08/02 09:12:27;;;;;;;4.13;1.27;;;;;;;;;;5092654;28;20209;-59
2023/08/02 09:15:02;;;;;;;2.75;1.30;;;;;;;;;;5094526;27;20352;-55
2023/08/02 09:17:28;;;;;;;2.33;1.20;;;;;;;;;;5090064;28;20027;-60
2023/08/02 09:20:09;;;;;;;1.67;1.08;;;;;;;;;;5086437;28;20543;-59
2023/08/02 09:22:34;;;;;;;3.08;1.30;;;;;;;;;;5086437;28;20020;-55
2023/08/02 09:25:00;;;;;;;1.27;1.13;;;;;;;;;;5097431;28;20031;-53
2023/08/02 09:27:28;;;;;;;2.58;1.30;;;;;;;;;;5104704;28;20012;-51
2023/08/02 09:29:54;;;;;;;3.42;1.25;;;;;;;;;;5098089;28;20024;-52
2023/08/02 09:32:20;;;;;;;1.92;1.20;;;;;;;;;;5088003;28;20544;-56
2023/08/02 09:34:47;;;;;;;1.60;1.30;;;;;;;;;;5087389;28;20039;-54
2023/08/02 09:37:13;;;;;;;1.80;1.10;;;;;;;;;;5096710;28;20425;-55
2023/08/02 09:39:39;;;;;;;1.23;1.08;;;;;;;;;;5106742;28;20028;-56
2023/08/02 09:42:09;;;;;;;1.90;1.08;;;;;;;;;;5107424;27;20072;-55
2023/08/02 09:44:34;;;;;;;1.48;1.13;;;;;;;;;;5107106;28;20117;-56
2023/08/02 09:47:10;;;;;;;1.75;1.00;;;;;;;;;;5097091;28;20032;-57
2023/08/02 09:49:35;;;;;;;1.92;1.10;;;;;;;;;;5089833;28;20027;-56
2023/08/02 09:52:00;;;;;;;2.08;1.33;;;;;;;;;;5086149;28;20443;-56
2023/08/02 09:54:26;;;;;;;1.90;1.10;;;;;;;;;;5091698;28;20020;-55
2023/08/02 09:56:52;;;;;;;1.70;1.30;;;;;;;;;;5106735;28;20023;-55
2023/08/02 09:59:18;;;;;;;2.45;1.20;;;;;;;;;;5106636;28;20072;-54
2023/08/02 10:01:46;;;;;;;4.72;1.38;;;;;;;;;;5107025;28;20054;-54
2023/08/02 10:04:12;;;;;;;3.28;1.15;;;;;;;;;;5096231;28;20105;-55
2023/08/02 10:06:41;;;;;;;1.65;0.93;;;;;;;;;;5086231;28;20358;-56
2023/08/02 10:09:08;;;;;;;3.08;1.17;;;;;;;;;;5086099;28;20385;-53
2023/08/02 10:11:42;;;;;;;1.48;1.15;;;;;;;;;;5083542;28;20031;-60
2023/08/02 10:14:09;;;;;;;2.53;1.10;;;;;;;;;;5083002;28;20059;-55
2023/08/02 10:16:35;;;;;;;2.95;1.40;;;;;;;;;;5100082;28;20027;-57
2023/08/02 10:19:01;;;;;;;2.30;1.38;;;;;;;;;;5085393;28;20499;-56
2023/08/02 10:21:27;;;;;;;2.80;1.20;;;;;;;;;;5096497;28;20051;-59
2023/08/02 10:23:53;;;;;;;1.30;1.08;;;;;;;;;;5091571;28;20080;-61
2023/08/02 10:26:18;;;;;;;3.28;1.13;;;;;;;;;;5085200;28;20028;-58
2023/08/02 10:28:44;;;;;;;2.67;1.10;;;;;;;;;;5100675;28;20495;-59
2023/08/02 10:31:10;;;;;;;1.92;1.00;;;;;;;;;;5105202;28;20020;-59
2023/08/02 10:33:35;;;;;;;2.17;1.20;;;;;;;;;;5120223;28;20544;-58
2023/08/02 10:36:02;;;;;;;1.97;1.20;;;;;;;;;;5105456;28;20110;-57
2023/08/02 10:38:37;;;;;;;2.00;1.08;;;;;;;;;;5095010;28;20640;-60
2023/08/02 10:41:03;;;;;;;2.75;1.30;;;;;;;;;;5084037;28;20446;-57
2023/08/02 10:43:28;;;;;;;1.63;1.20;;;;;;;;;;5095800;28;20035;-56
2023/08/02 10:46:25;;;;;;;1.77;1.30;;;;;;;;;;5104796;28;20377;-58
2023/08/02 10:48:50;;;;;;;3.53;1.17;;;;;;;;;;5067925;28;20062;-59
2023/08/02 10:51:32;;;;;;;1.30;1.00;;;;;;;;;;5080535;28;20024;-60
2023/08/02 10:54:11;;;;;;;9.20;1.50;;;;;;;;;;5077965;28;20373;-58
2023/08/02 10:56:58;;;;;;;3.17;1.42;;;;;;;;;;5065179;28;20771;-55
2023/08/02 10:59:23;;;;;;;1.95;1.02;;;;;;;;;;5078624;28;20432;-58
2023/08/02 11:01:54;;;;;;;4.40;1.00;;;;;;;;;;5068534;28;20021;-60
2023/08/02 11:04:19;;;;;;;4.00;1.33;;;;;;;;;;5081942;28;20024;-58
2023/08/02 11:06:45;;;;;;;5.77;1.40;;;;;;;;;;5072829;28;20073;-63
2023/08/02 11:09:10;;;;;;;3.95;1.50;;;;;;;;;;5066547;28;20559;-63
2023/08/02 11:11:36;;;;;;;1.53;1.00;;;;;;;;;;5072357;28;20508;-60
2023/08/02 11:14:02;;;;;;;4.97;1.10;;;;;;;;;;5086062;28;20946;-61
2023/08/02 11:16:28;;;;;;;3.10;1.40;;;;;;;;;;5085872;28;20074;-61
2023/08/02 11:18:53;;;;;;;3.60;1.30;;;;;;;;;;5066019;28;20033;-58
2023/08/02 11:21:18;;;;;;;3.83;1.13;;;;;;;;;;5065927;28;20055;-63
2023/08/02 11:23:46;;;;;;;1.27;1.10;;;;;;;;;;5065646;28;20728;-61
2023/08/02 11:26:12;;;;;;;1.30;1.08;;;;;;;;;;5086205;28;20040;-64
2023/08/02 11:28:38;;;;;;;1.30;1.17;;;;;;;;;;5095947;28;20430;-63
2023/08/02 11:31:05;;;;;;;1.45;1.08;;;;;;;;;;5108924;28;20103;-60
2023/08/02 11:33:31;;;;;;;3.03;1.10;;;;;;;;;;5107893;28;20123;-62
2023/08/02 11:35:57;;;;;;;1.58;0.95;;;;;;;;;;5108676;28;20030;-62
2023/08/02 11:38:22;;;;;;;3.78;1.40;;;;;;;;;;5092366;27;20054;-60
2023/08/02 11:40:48;;;;;;;2.60;1.30;;;;;;;;;;5088148;28;20043;-66
2023/08/02 11:43:14;;;;;;;2.65;1.40;;;;;;;;;;5091692;28;20008;-63
2023/08/02 11:45:40;;;;;;;2.65;1.00;;;;;;;;;;5100028;28;20032;-62
2023/08/02 11:48:05;;;;;;;2.65;1.42;;;;;;;;;;5087882;28;20024;-65
2023/08/02 11:50:34;;;;;;;3.95;1.05;;;;;;;;;;5104246;28;20039;-61
2023/08/02 11:53:03;;;;;;;1.38;0.80;;;;;;;;;;5108285;28;20565;-58
2023/08/02 11:55:28;;;;;;;1.15;0.98;;;;;;;;;;5106052;28;20023;-61
2023/08/02 11:57:54;;;;;;;1.98;1.15;;;;;;;;;;5108267;28;20026;-61
2023/08/02 12:00:19;;;;;;;1.70;1.20;;;;;;;;;;5107850;28;20046;-61
2023/08/02 12:02:46;;;;;;;1.97;1.43;;;;;;;;;;5099776;27;20461;-60
2023/08/02 12:05:18;;;;;;;3.20;1.10;;;;;;;;;;5094113;28;20701;-59
2023/08/02 12:07:43;;;;;;;2.45;1.40;;;;;;;;;;5100775;28;20027;-59
2023/08/02 12:10:10;;;;;;;4.53;1.20;;;;;;;;;;5108283;28;20028;-57
2023/08/02 12:12:36;;;;;;;1.25;1.10;;;;;;;;;;5105101;28;20775;-56
2023/08/02 12:15:11;;;;;;;6.13;1.20;;;;;;;;;;5096931;28;20051;-56
2023/08/02 12:17:36;;;;;;;2.63;1.13;;;;;;;;;;5108310;28;20030;-60
2023/08/02 12:20:02;;;;;;;1.30;1.20;;;;;;;;;;5097720;28;20022;-59
2023/08/02 12:22:27;;;;;;;2.65;1.30;;;;;;;;;;5104059;28;20023;-60
2023/08/02 12:25:03;;;;;;;1.40;1.20;;;;;;;;;;5107111;28;20590;-58
2023/08/02 12:27:29;;;;;;;1.25;1.10;;;;;;;;;;5107835;28;20038;-61
2023/08/02 12:30:06;;;;;;;1.80;1.00;;;;;;;;;;5105058;28;20119;-60
2023/08/02 12:32:31;;;;;;;1.95;1.30;;;;;;;;;;5108463;28;20020;-57
2023/08/02 12:35:03;;;;;;;3.80;1.10;;;;;;;;;;5102992;28;20081;-63
2023/08/02 12:37:28;;;;;;;2.92;1.17;;;;;;;;;;5103057;28;20023;-64
2023/08/02 12:39:54;;;;;;;2.53;1.40;;;;;;;;;;5110070;28;20425;-66
2023/08/02 12:42:19;;;;;;;2.33;1.60;;;;;;;;;;5110430;28;20320;-63
2023/08/02 12:44:44;;;;;;;2.67;1.40;;;;;;;;;;5109747;28;20516;-63
2023/08/02 12:47:10;;;;;;;1.77;1.20;;;;;;;;;;5092729;28;20024;-62
2023/08/02 12:49:35;;;;;;;3.63;1.67;;;;;;;;;;5099094;28;20453;-60
2023/08/02 12:52:00;;;;;;;2.20;1.70;;;;;;;;;;5111603;28;20039;-63
2023/08/02 12:54:25;;;;;;;2.42;1.45;;;;;;;;;;5101535;28;20335;-59
2023/08/02 12:56:51;;;;;;;2.67;1.40;;;;;;;;;;5103527;28;20019;-62
2023/08/02 12:59:16;;;;;;;1.63;1.20;;;;;;;;;;5109147;28;20019;-58
2023/08/02 13:01:41;;;;;;;1.87;1.27;;;;;;;;;;5089520;28;20074;-63
2023/08/02 13:04:06;;;;;;;3.67;1.70;;;;;;;;;;5088788;28;20498;-56
2023/08/02 13:06:32;;;;;;;3.03;1.87;;;;;;;;;;5107149;28;20032;-64
2023/08/02 13:08:57;;;;;;;3.13;1.60;;;;;;;;;;5106976;28;20986;-61
2023/08/02 13:11:22;;;;;;;2.10;1.50;;;;;;;;;;5096814;28;20051;-68
2023/08/02 13:13:48;;;;;;;2.13;1.50;;;;;;;;;;5087216;28;20040;-67
2023/08/02 13:16:13;;;;;;;1.87;1.23;;;;;;;;;;5092234;28;20804;-61
2023/08/02 13:18:38;;;;;;;2.90;1.53;;;;;;;;;;5089675;28;20024;-66
2023/08/02 13:21:03;;;;;;;1.83;1.30;;;;;;;;;;5088500;28;20020;-69
2023/08/02 13:23:29;;;;;;;2.13;1.60;;;;;;;;;;5094121;28;20420;-64
2023/08/02 13:25:54;;;;;;;4.13;1.63;;;;;;;;;;5091497;28;20909;-63
2023/08/02 13:28:19;;;;;;;2.50;1.30;;;;;;;;;;5101959;28;20268;-66
2023/08/02 13:30:45;;;;;;;1.20;1.07;;;;;;;;;;5109538;28;20461;-65
2023/08/02 13:33:10;;;;;;;1.73;1.15;;;;;;;;;;5108953;28;20071;-53
2023/08/02 13:35:36;;;;;;;2.13;1.25;;;;;;;;;;5093731;28;20024;-57
2023/08/02 13:38:01;;;;;;;4.77;1.47;;;;;;;;;;5086774;28;20526;-57
2023/08/02 13:40:26;;;;;;;3.00;1.40;;;;;;;;;;5089027;28;20020;-61
2023/08/02 13:42:52;;;;;;;2.27;1.10;;;;;;;;;;5092134;28;20317;-59
2023/08/02 13:45:17;;;;;;;1.52;1.13;;;;;;;;;;5094551;27;20808;-59
2023/08/02 13:47:42;;;;;;;1.83;1.10;;;;;;;;;;5099714;28;20023;-61
2023/08/02 13:50:08;;;;;;;2.15;1.20;;;;;;;;;;5093750;28;20748;-60
2023/08/02 13:52:33;;;;;;;1.45;1.00;;;;;;;;;;5086660;28;20484;-58
2023/08/02 13:54:59;;;;;;;1.70;1.20;;;;;;;;;;5104177;28;20456;-55
2023/08/02 13:57:24;;;;;;;1.90;1.40;;;;;;;;;;5086075;28;20491;-55
2023/08/02 13:59:49;;;;;;;3.07;1.30;;;;;;;;;;5102047;28;20023;-60
2023/08/02 14:02:14;;;;;;;2.17;1.00;;;;;;;;;;5082854;28;20020;-60
2023/08/02 14:04:40;;;;;;;2.77;1.30;;;;;;;;;;5086974;28;20020;-59
2023/08/02 14:07:05;;;;;;;1.77;1.27;;;;;;;;;;5085664;28;20300;-59
2023/08/02 14:09:31;;;;;;;3.05;1.30;;;;;;;;;;5085848;28;20020;-62
2023/08/02 14:11:56;;;;;;;2.92;1.42;;;;;;;;;;5085649;28;20551;-58
2023/08/02 14:14:21;;;;;;;2.33;1.13;;;;;;;;;;5098193;28;20031;-62
2023/08/02 14:16:47;;;;;;;2.70;1.48;;;;;;;;;;5104529;28;20283;-60
2023/08/02 14:19:12;;;;;;;6.90;1.43;;;;;;;;;;5094577;28;20084;-59
2023/08/02 14:21:37;;;;;;;1.20;0.97;;;;;;;;;;5086387;28;20027;-62
2023/08/02 14:24:02;;;;;;;1.30;1.00;;;;;;;;;;5105778;28;20023;-63
2023/08/02 14:26:28;;;;;;;2.13;1.30;;;;;;;;;;5105625;28;20069;-60
2023/08/02 14:28:53;;;;;;;2.15;1.15;;;;;;;;;;5099364;28;20019;-61
2023/08/02 14:31:19;;;;;;;1.20;1.08;;;;;;;;;;5096763;28;20032;-62
2023/08/02 14:33:44;;;;;;;3.10;1.40;;;;;;;;;;5104115;28;20016;-59
2023/08/02 14:36:10;;;;;;;2.77;1.30;;;;;;;;;;5097017;28;20054;-59